createdAt,value
2019-02-20T05:40:55.645Z,99.90
2019-02-20T05:43:23.781Z,99.90
2019-02-20T05:45:51.919Z,99.90
2019-02-20T05:48:20.059Z,99.90
2019-02-20T05:50:48.311Z,99.90
2019-02-20T05:53:16.149Z,99.90
2019-02-20T05:55:44.176Z,99.90
2019-02-20T05:58:12.247Z,99.90
2019-02-20T06:00:40.279Z,99.90
2019-02-20T06:03:08.209Z,99.90
2019-02-20T06:05:36.145Z,99.90
2019-02-20T06:08:04.218Z,99.90
2019-02-20T06:10:32.250Z,99.90
2019-02-20T06:13:00.360Z,99.90
2019-02-20T06:15:28.439Z,99.90
2019-02-20T06:17:56.501Z,99.90
2019-02-20T06:20:24.541Z,99.90
2019-02-20T06:22:52.596Z,99.90
2019-02-20T06:25:20.721Z,99.90
2019-02-20T06:27:48.676Z,99.90
2019-02-20T06:30:16.616Z,99.90
2019-02-20T06:32:44.564Z,99.90
2019-02-20T06:35:12.691Z,99.90
2019-02-20T06:37:40.745Z,99.90
2019-02-20T06:40:09.184Z,99.90
2019-02-20T06:42:37.535Z,99.90
2019-02-20T06:45:05.607Z,99.90
2019-02-20T06:47:33.716Z,99.90
2019-02-20T06:50:01.810Z,99.90
2019-02-20T06:52:29.882Z,99.90
2019-02-20T06:54:58.256Z,99.90
2019-02-20T06:57:26.152Z,99.90
2019-02-20T06:59:54.324Z,99.90
2019-02-20T07:02:22.346Z,99.90
2019-02-20T07:05:27.092Z,99.90
2019-02-20T07:08:36.944Z,99.60
2019-02-20T07:11:30.272Z,99.40
2019-02-20T07:14:43.305Z,98.10
2019-02-20T07:17:55.740Z,95.40
2019-02-20T07:21:10.953Z,93.90
2019-02-20T07:24:10.048Z,93.30
2019-02-20T07:27:27.005Z,93.90
2019-02-20T07:30:05.079Z,92.40
2019-02-20T07:32:33.348Z,91.40
2019-02-20T07:35:01.396Z,90.10
2019-02-20T07:37:29.447Z,89.40
2019-02-20T07:39:57.576Z,89.00
2019-02-20T07:42:25.887Z,86.30
2019-02-20T07:44:55.347Z,84.80
2019-02-20T07:47:23.396Z,85.40
2019-02-20T07:49:51.424Z,84.10
2019-02-20T07:52:19.457Z,83.70
2019-02-20T07:54:47.625Z,83.80
2019-02-20T07:57:15.701Z,81.20
2019-02-20T07:59:43.744Z,81.20
2019-02-20T08:02:11.809Z,81.00
2019-02-20T08:04:39.860Z,80.60
2019-02-20T08:07:07.852Z,80.20
2019-02-20T08:09:36.043Z,80.40
2019-02-20T08:12:04.074Z,80.70
2019-02-20T08:14:32.483Z,81.20
2019-02-20T08:17:00.373Z,81.70
2019-02-20T08:19:28.533Z,80.70
2019-02-20T08:21:56.491Z,78.90
2019-02-20T08:24:24.688Z,78.20
2019-02-20T08:26:52.525Z,77.90
2019-02-20T08:29:20.393Z,78.00
2019-02-20T08:31:48.292Z,77.70
2019-02-20T08:34:16.112Z,77.10
2019-02-20T08:36:44.268Z,77.00
2019-02-20T08:39:12.156Z,77.40
2019-02-20T08:41:40.283Z,76.50
2019-02-20T08:44:08.188Z,75.50
2019-02-20T08:46:36.431Z,74.80
2019-02-20T08:49:04.531Z,74.10
2019-02-20T08:51:32.567Z,73.00
2019-02-20T08:54:00.539Z,72.00
2019-02-20T08:56:28.456Z,73.10
2019-02-20T08:58:56.467Z,73.30
2019-02-20T09:01:24.534Z,73.80
2019-02-20T09:03:52.596Z,73.30
2019-02-20T09:06:20.748Z,72.20
2019-02-20T09:08:48.791Z,72.40
2019-02-20T09:11:16.624Z,72.30
2019-02-20T09:13:44.536Z,73.10
2019-02-20T09:16:12.655Z,74.40
2019-02-20T09:18:40.723Z,73.70
2019-02-20T09:21:08.798Z,72.90
2019-02-20T09:23:36.909Z,72.20
2019-02-20T09:26:05.246Z,71.40
2019-02-20T09:28:33.260Z,71.60
2019-02-20T09:31:01.561Z,71.60
2019-02-20T09:33:29.567Z,72.90
2019-02-20T09:35:57.606Z,71.50
2019-02-20T09:38:25.619Z,71.10
2019-02-20T09:40:53.734Z,69.50
2019-02-20T09:43:21.830Z,69.70
2019-02-20T09:45:49.851Z,69.80
2019-02-20T09:48:17.953Z,69.40
2019-02-20T09:50:47.731Z,70.70
2019-02-20T09:53:15.672Z,69.50
2019-02-20T09:55:51.203Z,70.10
2019-02-20T09:58:13.519Z,70.50
2019-02-20T10:00:41.676Z,71.40
2019-02-20T10:03:09.694Z,70.40
2019-02-20T10:05:37.812Z,71.00
2019-02-20T10:08:05.883Z,70.20
2019-02-20T10:10:33.955Z,70.70
2019-02-20T10:13:01.996Z,71.70
2019-02-20T10:15:29.848Z,71.50
2019-02-20T10:17:57.884Z,67.40
2019-02-20T10:20:25.974Z,65.50
2019-02-20T10:22:53.999Z,64.80
2019-02-20T10:25:22.044Z,64.40
2019-02-20T10:27:50.092Z,65.30
2019-02-20T10:30:18.309Z,66.20
2019-02-20T10:32:46.323Z,64.90
2019-02-20T10:35:14.272Z,63.80
2019-02-20T10:37:42.410Z,62.40
2019-02-20T10:40:10.568Z,63.30
2019-02-20T10:42:38.486Z,63.50
2019-02-20T10:45:07.053Z,62.60
2019-02-20T10:47:35.270Z,63.80
2019-02-20T10:50:04.262Z,63.90
2019-02-20T10:52:32.412Z,62.80
2019-02-20T10:55:00.459Z,64.70
2019-02-20T10:57:28.527Z,63.90
2019-02-20T10:59:56.553Z,63.90
2019-02-20T11:02:24.700Z,63.50
2019-02-20T11:04:52.716Z,63.10
2019-02-20T11:07:20.761Z,63.90
2019-02-20T11:09:48.869Z,64.00
2019-02-20T11:12:16.912Z,63.90
2019-02-20T11:14:44.958Z,65.70
2019-02-20T11:17:12.900Z,66.00
2019-02-20T11:19:41.151Z,65.90
2019-02-20T11:22:09.290Z,65.40
2019-02-20T11:24:37.656Z,66.20
2019-02-20T11:27:05.721Z,66.20
2019-02-20T11:29:33.744Z,66.40
2019-02-20T11:32:01.787Z,66.40
2019-02-20T11:34:29.824Z,67.00
2019-02-20T11:36:57.788Z,67.20
2019-02-20T11:39:25.864Z,67.80
2019-02-20T11:41:53.842Z,67.50
2019-02-20T11:44:22.180Z,66.10
2019-02-20T11:46:50.005Z,65.40
2019-02-20T11:49:17.986Z,64.60
2019-02-20T11:51:46.041Z,64.50
2019-02-20T11:54:13.983Z,64.00
2019-02-20T11:56:42.056Z,62.60
2019-02-20T11:59:09.988Z,61.20
2019-02-20T12:01:38.061Z,61.10
2019-02-20T12:04:06.204Z,60.40
2019-02-20T12:06:34.136Z,59.90
2019-02-20T12:09:04.169Z,60.00
2019-02-20T12:11:32.467Z,59.20
2019-02-20T12:14:00.506Z,59.00
2019-02-20T12:16:28.530Z,58.60
2019-02-20T12:18:56.695Z,58.10
2019-02-20T12:21:24.752Z,58.20
2019-02-20T12:23:52.828Z,57.90
2019-02-20T12:26:20.862Z,58.30
2019-02-20T12:28:48.946Z,58.50
2019-02-20T12:31:17.059Z,59.00
2019-02-20T12:33:45.007Z,58.60
2019-02-20T12:36:13.274Z,58.80
2019-02-20T12:38:41.527Z,58.80
2019-02-20T12:41:10.899Z,59.70
2019-02-20T12:43:39.233Z,59.30
2019-02-20T12:46:07.330Z,58.80
2019-02-20T12:48:35.436Z,59.20
2019-02-20T12:51:03.472Z,58.60
2019-02-20T12:53:31.499Z,58.80
2019-02-20T12:55:59.535Z,58.90
2019-02-20T12:58:27.548Z,59.40
2019-02-20T13:00:55.466Z,59.60
2019-02-20T13:03:23.386Z,59.90
2019-02-20T13:05:51.540Z,61.60
2019-02-20T13:08:19.604Z,59.90
2019-02-20T13:10:47.756Z,60.50
2019-02-20T13:13:17.976Z,61.10
2019-02-20T13:15:45.932Z,61.10
2019-02-20T13:18:14.052Z,61.80
2019-02-20T13:20:42.115Z,62.80
2019-02-20T13:23:10.157Z,63.20
2019-02-20T13:25:38.600Z,63.80
2019-02-20T13:28:06.712Z,63.20
2019-02-20T13:30:34.991Z,63.20
2019-02-20T13:33:03.091Z,63.00
2019-02-20T13:35:31.103Z,62.40
2019-02-20T13:37:59.261Z,61.20
2019-02-20T13:40:27.328Z,61.60
2019-02-20T13:42:55.354Z,61.60
2019-02-20T13:45:23.395Z,61.00
2019-02-20T13:47:51.543Z,61.00
2019-02-20T13:50:20.247Z,60.90
2019-02-20T13:52:52.280Z,60.50
2019-02-20T13:55:18.183Z,60.70
2019-02-20T13:57:46.213Z,59.60
2019-02-20T14:00:14.281Z,59.30
2019-02-20T14:02:42.340Z,58.80
2019-02-20T14:05:10.467Z,56.90
2019-02-20T14:07:39.546Z,53.80
2019-02-20T14:10:09.324Z,51.90
2019-02-20T14:12:37.371Z,51.60
2019-02-20T14:15:06.777Z,51.80
2019-02-20T14:17:34.824Z,51.70
2019-02-20T14:20:03.475Z,52.10
2019-02-20T14:22:31.599Z,53.80
2019-02-20T14:24:59.879Z,52.90
2019-02-20T14:27:27.824Z,51.10
2019-02-20T14:29:56.068Z,49.20
2019-02-20T14:32:24.093Z,47.70
2019-02-20T14:34:52.132Z,46.80
2019-02-20T14:37:20.279Z,47.10
2019-02-20T14:39:48.328Z,47.00
2019-02-20T14:42:16.664Z,46.40
2019-02-20T14:44:44.579Z,46.70
2019-02-20T14:47:12.856Z,46.50
2019-02-20T14:49:40.901Z,45.80
2019-02-20T14:52:08.898Z,46.90
2019-02-20T14:54:36.812Z,47.30
2019-02-20T14:57:05.159Z,48.30
2019-02-20T14:59:33.796Z,50.30
2019-02-20T15:02:01.883Z,51.30
2019-02-20T15:04:29.836Z,51.70
2019-02-20T15:06:57.971Z,52.60
2019-02-20T15:09:26.112Z,53.50
2019-02-20T15:11:54.184Z,54.90
2019-02-20T15:14:22.329Z,55.90
2019-02-20T15:16:50.868Z,56.80
2019-02-20T15:19:19.404Z,57.90
2019-02-20T15:21:48.681Z,57.50
2019-02-20T15:24:17.041Z,57.00
2019-02-20T15:26:44.973Z,56.90
2019-02-20T15:29:13.098Z,57.30
2019-02-20T15:31:41.116Z,58.40
